createdAt,value
2018-07-24T00:01:14.068Z,101180.92
2018-07-24T00:03:41.235Z,101171.62
2018-07-24T00:06:08.385Z,101177.70
2018-07-24T00:08:35.506Z,101172.48
2018-07-24T00:11:03.233Z,101169.89
2018-07-24T00:13:30.443Z,101174.05
2018-07-24T00:15:57.556Z,101180.30
2018-07-24T00:18:24.742Z,101171.20
2018-07-24T00:20:51.869Z,101171.12
2018-07-24T00:23:19.090Z,101174.25
2018-07-24T00:25:46.262Z,101168.06
2018-07-24T00:28:13.403Z,101169.56
2018-07-24T00:30:40.517Z,101169.31
2018-07-24T00:33:07.687Z,101164.41
2018-07-24T00:35:34.928Z,101164.92
2018-07-24T00:38:02.089Z,101165.13
2018-07-24T00:40:29.241Z,101171.38
2018-07-24T00:42:56.336Z,101171.69
2018-07-24T00:45:23.457Z,101165.67
2018-07-24T00:47:50.753Z,101167.12
2018-07-24T00:50:17.871Z,101171.25
2018-07-24T00:52:45.020Z,101160.86
2018-07-24T00:55:12.184Z,101169.75
2018-07-24T00:57:39.290Z,101164.06
2018-07-24T01:00:06.559Z,101157.54
2018-07-24T01:02:34.057Z,101157.85
2018-07-24T01:05:01.167Z,101155.11
2018-07-24T01:07:32.869Z,101161.14
2018-07-24T01:10:00.046Z,101161.38
2018-07-24T01:12:27.300Z,101156.44
2018-07-24T01:14:54.428Z,101160.73
2018-07-24T01:17:21.595Z,101152.81
2018-07-24T01:19:48.709Z,101159.97
2018-07-24T01:22:15.830Z,101157.72
2018-07-24T01:24:43.201Z,101154.91
2018-07-24T01:27:10.349Z,101159.06
2018-07-24T01:29:37.480Z,101163.50
2018-07-24T01:32:05.028Z,101162.63
2018-07-24T01:34:32.134Z,101163.39
2018-07-24T01:37:00.276Z,101158.44
2018-07-24T01:39:27.444Z,101157.47
2018-07-24T01:41:54.600Z,101155.68
2018-07-24T01:44:21.731Z,101156.35
2018-07-24T01:46:49.238Z,101159.47
2018-07-24T01:49:16.481Z,101149.21
2018-07-24T01:51:43.582Z,101151.19
2018-07-24T01:54:10.763Z,101150.42
2018-07-24T01:56:38.094Z,101148.02
2018-07-24T01:59:05.175Z,101144.79
2018-07-24T02:01:32.456Z,101149.64
2018-07-24T02:03:59.629Z,101147.95
2018-07-24T02:06:26.769Z,101145.08
2018-07-24T02:08:53.935Z,101143.30
2018-07-24T02:11:21.045Z,101147.23
2018-07-24T02:13:48.277Z,101146.58
2018-07-24T02:16:15.809Z,101147.50
2018-07-24T02:18:42.900Z,101148.41
2018-07-24T02:21:10.040Z,101152.63
2018-07-24T02:23:37.195Z,101153.67
2018-07-24T02:26:04.614Z,101147.73
2018-07-24T02:28:31.742Z,101145.83
2018-07-24T02:30:58.943Z,101143.45
2018-07-24T02:33:26.066Z,101144.73
2018-07-24T02:35:53.197Z,101143.91
2018-07-24T02:38:20.466Z,101145.65
2018-07-24T02:40:47.596Z,101139.63
2018-07-24T02:43:14.724Z,101144.14
2018-07-24T02:45:41.887Z,101145.98
2018-07-24T02:48:08.988Z,101145.16
2018-07-24T02:50:36.234Z,101146.44
2018-07-24T02:53:03.685Z,101149.73
2018-07-24T02:55:30.776Z,101149.31
2018-07-24T02:57:57.883Z,101150.41
2018-07-24T03:00:25.079Z,101150.88
2018-07-24T03:02:52.349Z,101151.09
2018-07-24T03:05:19.459Z,101152.47
2018-07-24T03:07:46.639Z,101145.57
2018-07-24T03:10:13.861Z,101145.65
2018-07-24T03:12:40.980Z,101146.05
2018-07-24T03:15:08.231Z,101145.19
2018-07-24T03:17:35.404Z,101145.34
2018-07-24T03:20:02.559Z,101144.94
2018-07-24T03:22:29.736Z,101153.06
2018-07-24T03:24:56.867Z,101152.09
2018-07-24T03:27:24.095Z,101157.04
2018-07-24T03:29:51.261Z,101155.66
2018-07-24T03:32:18.404Z,101161.52
2018-07-24T03:34:45.528Z,101162.75
2018-07-24T03:37:12.704Z,101167.18
2018-07-24T03:39:39.973Z,101171.56
2018-07-24T03:42:07.206Z,101171.20
2018-07-24T03:44:34.672Z,101172.98
2018-07-24T03:47:01.773Z,101173.16
2018-07-24T03:49:28.880Z,101163.71
2018-07-24T03:51:56.203Z,101172.02
2018-07-24T03:54:23.299Z,101168.61
2018-07-24T03:56:50.431Z,101171.56
2018-07-24T03:59:17.601Z,101173.25
2018-07-24T04:01:44.731Z,101174.50
2018-07-24T04:04:18.603Z,101165.94
2018-07-24T04:06:45.715Z,101158.80
2018-07-24T04:09:12.841Z,101160.63
2018-07-24T04:11:40.684Z,101163.64
2018-07-24T04:14:07.788Z,101168.95
2018-07-24T04:16:35.355Z,101172.37
2018-07-24T04:19:02.540Z,101171.77
2018-07-24T04:21:29.699Z,101172.59
2018-07-24T04:23:56.815Z,101173.66
2018-07-24T04:26:23.974Z,101172.81
2018-07-24T04:28:51.140Z,101182.62
2018-07-24T04:31:18.340Z,101181.91
2018-07-24T04:33:45.493Z,101180.70
2018-07-24T04:36:12.646Z,101181.00
2018-07-24T04:38:39.887Z,101185.25
2018-07-24T04:41:07.048Z,101184.33
2018-07-24T04:43:34.285Z,101187.90
2018-07-24T04:46:01.393Z,101184.67
2018-07-24T04:48:28.606Z,101180.80
2018-07-24T04:50:55.783Z,101185.27
2018-07-24T04:53:22.920Z,101186.70
2018-07-24T04:55:50.065Z,101189.70
2018-07-24T04:58:17.161Z,101187.86
2018-07-24T05:00:45.308Z,101184.81
2018-07-24T05:03:12.512Z,101185.41
2018-07-24T05:05:39.627Z,101178.27
2018-07-24T05:08:06.804Z,101187.42
2018-07-24T05:10:33.968Z,101186.91
2018-07-24T05:13:01.126Z,101180.09
2018-07-24T05:15:28.305Z,101183.67
2018-07-24T05:17:56.044Z,101186.57
2018-07-24T05:20:23.208Z,101184.07
2018-07-24T05:22:50.491Z,101189.61
2018-07-24T05:25:17.636Z,101185.16
2018-07-24T05:27:44.733Z,101182.90
2018-07-24T05:30:11.915Z,101187.07
2018-07-24T05:32:39.117Z,101193.33
2018-07-24T05:35:06.394Z,101187.47
2018-07-24T05:37:33.564Z,101192.88
2018-07-24T05:40:00.676Z,101184.72
2018-07-24T05:42:27.791Z,101190.23
2018-07-24T05:44:54.986Z,101199.94
2018-07-24T05:47:23.084Z,101201.69
2018-07-24T05:49:50.237Z,101199.50
2018-07-24T05:52:17.368Z,101197.50
2018-07-24T05:54:44.658Z,101197.66
2018-07-24T05:57:11.812Z,101201.50
2018-07-24T05:59:38.920Z,101204.55
2018-07-24T06:02:06.104Z,101211.98
2018-07-24T06:04:33.242Z,101210.03
2018-07-24T06:07:00.563Z,101201.96
2018-07-24T06:09:27.715Z,101202.20
2018-07-24T06:11:54.836Z,101204.93
2018-07-24T06:14:22.041Z,101208.69
2018-07-24T06:16:49.155Z,101211.28
2018-07-24T06:19:16.265Z,101209.50
2018-07-24T06:21:43.474Z,101203.37
2018-07-24T06:24:10.564Z,101203.57
2018-07-24T06:26:37.721Z,101204.98
2018-07-24T06:29:04.867Z,101200.14
2018-07-24T06:31:32.010Z,101206.34
2018-07-24T06:33:59.167Z,101198.62
2018-07-24T06:36:26.279Z,101203.77
2018-07-24T06:38:53.524Z,101204.51
2018-07-24T06:41:20.624Z,101200.06
2018-07-24T06:43:47.749Z,101210.47
2018-07-24T06:46:15.053Z,101205.06
2018-07-24T06:48:42.186Z,101205.64
2018-07-24T06:51:09.334Z,101201.64
2018-07-24T06:53:36.517Z,101207.97
2018-07-24T06:56:03.720Z,101206.95
2018-07-24T06:58:30.970Z,101211.19
2018-07-24T07:00:58.156Z,101209.09
2018-07-24T07:03:25.327Z,101209.47
2018-07-24T07:05:52.412Z,101206.30
2018-07-24T07:08:19.595Z,101207.30
2018-07-24T07:10:46.728Z,101210.19
2018-07-24T07:13:13.975Z,101208.63
2018-07-24T07:15:41.095Z,101213.83
2018-07-24T07:18:08.227Z,101209.34
2018-07-24T07:20:35.421Z,101207.66
2018-07-24T07:23:02.733Z,101208.30
2018-07-24T07:25:29.847Z,101212.23
2018-07-24T07:27:56.993Z,101216.27
2018-07-24T07:30:24.159Z,101211.25
2018-07-24T07:32:51.284Z,101217.90
2018-07-24T07:35:18.408Z,101213.86
2018-07-24T07:37:45.584Z,101220.06
2018-07-24T07:40:12.708Z,101210.37
2018-07-24T07:42:39.839Z,101206.80
2018-07-24T07:45:07.036Z,101205.02
2018-07-24T07:47:34.216Z,101201.73
2018-07-24T07:50:01.394Z,101203.19
2018-07-24T07:52:28.608Z,101200.50
2018-07-24T07:54:55.741Z,101203.20
2018-07-24T07:57:22.846Z,101203.79
2018-07-24T07:59:50.018Z,101198.93
2018-07-24T08:02:17.154Z,101190.27
2018-07-24T08:04:44.294Z,101197.89
2018-07-24T08:07:11.476Z,101191.44
2018-07-24T08:09:38.637Z,101189.58
2018-07-24T08:12:05.786Z,101186.31
2018-07-24T08:14:32.980Z,101191.11
2018-07-24T08:17:00.139Z,101191.25
2018-07-24T08:19:27.253Z,101190.07
2018-07-24T08:21:54.392Z,101181.63
2018-07-24T08:24:21.560Z,101185.99
2018-07-24T08:26:48.705Z,101181.87
2018-07-24T08:29:15.899Z,101185.16
2018-07-24T08:31:43.032Z,101195.29
2018-07-24T08:34:10.197Z,101187.66
2018-07-24T08:36:37.441Z,101188.57
2018-07-24T08:39:07.748Z,101176.01
2018-07-24T08:41:34.984Z,101176.81
2018-07-24T08:44:02.129Z,101177.06
2018-07-24T08:46:29.247Z,101172.96
2018-07-24T08:48:56.433Z,101170.06
2018-07-24T08:51:23.695Z,101165.52
2018-07-24T08:53:51.125Z,101166.50
2018-07-24T08:56:18.016Z,101159.80
2018-07-24T08:58:45.285Z,101163.30
2018-07-24T09:01:12.428Z,101157.05
2018-07-24T09:03:39.634Z,101157.61
2018-07-24T09:06:06.916Z,101161.68
2018-07-24T09:08:34.049Z,101161.36
2018-07-24T09:11:01.182Z,101162.21
2018-07-24T09:13:28.353Z,101161.69
2018-07-24T09:15:55.477Z,101165.91
2018-07-24T09:18:22.595Z,101158.30
2018-07-24T09:20:49.868Z,101155.97
2018-07-24T09:23:16.987Z,101158.95
2018-07-24T09:25:44.148Z,101156.03
2018-07-24T09:28:11.314Z,101155.95
2018-07-24T09:30:38.457Z,101154.34
2018-07-24T09:33:05.734Z,101158.30
2018-07-24T09:35:33.043Z,101150.89
2018-07-24T09:38:00.182Z,101150.85
2018-07-24T09:40:27.357Z,101146.92
2018-07-24T09:42:54.531Z,101137.23
2018-07-24T09:45:21.666Z,101139.97
2018-07-24T09:47:48.790Z,101144.72
2018-07-24T09:50:21.789Z,101137.03
2018-07-24T09:52:48.965Z,101136.41
2018-07-24T09:55:16.095Z,101134.95
2018-07-24T09:57:43.343Z,101139.20
2018-07-24T10:00:10.495Z,101139.17
2018-07-24T10:02:38.250Z,101136.38
2018-07-24T10:05:05.814Z,101131.05
2018-07-24T10:07:33.031Z,101127.66
2018-07-24T10:10:00.149Z,101129.98
2018-07-24T10:12:27.332Z,101133.20
2018-07-24T10:14:54.468Z,101129.02
2018-07-24T10:17:21.612Z,101121.75
2018-07-24T10:19:48.800Z,101122.22
2018-07-24T10:22:16.008Z,101125.20
2018-07-24T10:24:43.136Z,101124.06
2018-07-24T10:27:10.401Z,101116.58
2018-07-24T10:29:37.545Z,101116.62
2018-07-24T10:32:04.721Z,101116.73
2018-07-24T10:34:31.977Z,101117.25
2018-07-24T10:36:59.103Z,101120.45
2018-07-24T10:39:26.262Z,101110.78
2018-07-24T10:41:53.444Z,101102.48
2018-07-24T10:44:20.567Z,101106.18
2018-07-24T10:46:47.703Z,101102.10
2018-07-24T10:49:14.920Z,101094.77
2018-07-24T10:51:42.094Z,101097.59
2018-07-24T10:54:09.236Z,101099.73
2018-07-24T10:56:36.420Z,101096.05
2018-07-24T10:59:03.589Z,101094.08
2018-07-24T11:01:30.728Z,101083.50
2018-07-24T11:03:57.968Z,101090.61
2018-07-24T11:06:25.371Z,101080.92
2018-07-24T11:08:52.680Z,101086.77
2018-07-24T11:11:19.876Z,101079.91
2018-07-24T11:13:46.999Z,101079.66
2018-07-24T11:16:14.115Z,101078.95
2018-07-24T11:18:41.252Z,101070.85
2018-07-24T11:21:08.345Z,101077.72
2018-07-24T11:23:35.457Z,101069.10
2018-07-24T11:26:02.648Z,101069.05
2018-07-24T11:28:29.944Z,101071.05
2018-07-24T11:30:57.077Z,101069.48
2018-07-24T11:33:24.521Z,101070.73
2018-07-24T11:35:51.785Z,101075.33
2018-07-24T11:38:18.868Z,101070.73
2018-07-24T11:40:46.117Z,101070.98
2018-07-24T11:43:13.227Z,101068.68
2018-07-24T11:45:40.344Z,101068.52
2018-07-24T11:48:07.596Z,101068.27
2018-07-24T11:50:34.744Z,101071.59
2018-07-24T11:53:02.056Z,101065.75
2018-07-24T11:55:29.357Z,101061.92
2018-07-24T11:57:56.513Z,101056.61
2018-07-24T12:00:23.644Z,101053.61
2018-07-24T12:02:50.812Z,101048.35
2018-07-24T12:05:17.995Z,101038.94
2018-07-24T12:07:45.181Z,101046.36
2018-07-24T12:10:12.315Z,101049.91
2018-07-24T12:12:39.431Z,101045.43
2018-07-24T12:15:06.721Z,101044.06
2018-07-24T12:17:33.882Z,101048.14
2018-07-24T12:20:01.050Z,101037.25
2018-07-24T12:22:28.205Z,101036.98
2018-07-24T12:24:55.447Z,101039.50
2018-07-24T12:27:22.623Z,101031.08
2018-07-24T12:29:49.736Z,101030.97
2018-07-24T12:32:16.906Z,101033.09
2018-07-24T12:34:44.021Z,101028.98
2018-07-24T12:37:11.887Z,101024.10
2018-07-24T12:39:39.054Z,101030.91
2018-07-24T12:42:06.229Z,101033.87
2018-07-24T12:44:33.382Z,101030.99
2018-07-24T12:47:00.551Z,101028.06
2018-07-24T12:49:27.675Z,101028.11
2018-07-24T12:51:54.831Z,101024.88
2018-07-24T12:54:22.076Z,101018.14
2018-07-24T12:56:49.201Z,101015.77
2018-07-24T12:59:16.323Z,101006.01
2018-07-24T13:01:43.507Z,101011.63
2018-07-24T13:04:10.706Z,101013.70
2018-07-24T13:06:37.850Z,101011.52
2018-07-24T13:09:07.343Z,101011.94
2018-07-24T13:11:34.500Z,101014.00
2018-07-24T13:14:01.672Z,101015.14
2018-07-24T13:16:28.866Z,101009.55
2018-07-24T13:18:56.001Z,101009.36
2018-07-24T13:21:23.153Z,101013.68
2018-07-24T13:23:50.424Z,101010.86
2018-07-24T13:26:17.557Z,101010.22
2018-07-24T13:28:44.704Z,101004.91
2018-07-24T13:31:11.925Z,100995.33
2018-07-24T13:33:39.040Z,101003.38
2018-07-24T13:36:06.548Z,100995.26
2018-07-24T13:38:33.803Z,100994.65
2018-07-24T13:41:00.936Z,100988.31
2018-07-24T13:43:28.069Z,100990.08
2018-07-24T13:45:55.256Z,100986.66
2018-07-24T13:48:22.391Z,100986.30
2018-07-24T13:50:49.533Z,100977.63
2018-07-24T13:53:16.849Z,100980.87
2018-07-24T13:55:44.040Z,100971.66
2018-07-24T13:58:11.152Z,100974.89
2018-07-24T14:00:38.321Z,100980.69
2018-07-24T14:03:05.457Z,100981.69
2018-07-24T14:05:32.598Z,100976.57
2018-07-24T14:07:59.866Z,100977.13
2018-07-24T14:10:27.028Z,100977.45
2018-07-24T14:12:54.160Z,100984.95
2018-07-24T14:15:21.374Z,100981.84
2018-07-24T14:17:48.498Z,100979.12
2018-07-24T14:20:15.763Z,100973.72
2018-07-24T14:22:42.946Z,100976.42
2018-07-24T14:25:10.113Z,100965.33
2018-07-24T14:27:37.255Z,100976.05
2018-07-24T14:30:04.777Z,100965.00
2018-07-24T14:32:31.916Z,100960.91
2018-07-24T14:34:59.081Z,100964.66
2018-07-24T14:37:26.324Z,100959.71
2018-07-24T14:39:53.464Z,100963.60
2018-07-24T14:42:20.605Z,100960.73
2018-07-24T14:44:47.744Z,100950.05
2018-07-24T14:47:14.874Z,100953.02
2018-07-24T14:49:42.019Z,100948.87
2018-07-24T14:52:09.198Z,100946.94
2018-07-24T14:54:36.382Z,100946.30
2018-07-24T14:57:03.613Z,100948.99
2018-07-24T14:59:30.780Z,100955.41
2018-07-24T15:01:57.921Z,100952.75
2018-07-24T15:04:25.072Z,100956.73
2018-07-24T15:06:52.321Z,100954.06
2018-07-24T15:09:19.487Z,100949.47
2018-07-24T15:11:46.605Z,100948.29
2018-07-24T15:14:13.836Z,100947.23
2018-07-24T15:16:41.015Z,100943.43
2018-07-24T15:19:08.108Z,100943.01
2018-07-24T15:21:35.342Z,100944.59
2018-07-24T15:24:02.514Z,100947.50
2018-07-24T15:26:29.663Z,100942.03
2018-07-24T15:28:56.871Z,100941.75
2018-07-24T15:31:24.083Z,100944.89
2018-07-24T15:33:51.260Z,100940.52
2018-07-24T15:36:18.432Z,100931.34
2018-07-24T15:38:45.564Z,100937.72
2018-07-24T15:41:12.706Z,100932.02
2018-07-24T15:43:39.928Z,100932.88
2018-07-24T15:46:07.083Z,100935.16
2018-07-24T15:48:34.250Z,100940.97
2018-07-24T15:51:01.470Z,100935.38
2018-07-24T15:53:28.615Z,100946.88
2018-07-24T15:55:55.775Z,100939.92
2018-07-24T15:58:23.023Z,100944.05
2018-07-24T16:00:50.172Z,100935.20
2018-07-24T16:03:17.807Z,100937.64
2018-07-24T16:05:44.961Z,100927.72
2018-07-24T16:08:12.097Z,100920.75
2018-07-24T16:10:39.253Z,100924.06
2018-07-24T16:13:06.431Z,100924.02
2018-07-24T16:15:33.764Z,100925.86
2018-07-24T16:18:00.757Z,100917.56
2018-07-24T16:20:27.919Z,100920.96
2018-07-24T16:22:55.048Z,100916.95
2018-07-24T16:25:22.188Z,100904.37
2018-07-24T16:27:49.374Z,100910.64
2018-07-24T16:30:16.588Z,100897.95
2018-07-24T16:32:43.737Z,100905.56
2018-07-24T16:35:10.892Z,100900.02
2018-07-24T16:37:38.003Z,100906.95
2018-07-24T16:40:05.198Z,100903.81
2018-07-24T16:42:32.460Z,100903.59
2018-07-24T16:44:59.768Z,100906.55
2018-07-24T16:47:26.890Z,100905.23
2018-07-24T16:49:54.071Z,100893.70
2018-07-24T16:52:21.224Z,100895.36
2018-07-24T16:54:48.645Z,100893.24
2018-07-24T16:57:15.826Z,100891.95
2018-07-24T16:59:43.076Z,100878.98
2018-07-24T17:02:10.326Z,100884.59
2018-07-24T17:04:37.703Z,100882.55
2018-07-24T17:07:05.040Z,100880.39
2018-07-24T17:09:32.164Z,100880.05
2018-07-24T17:11:59.383Z,100877.63
2018-07-24T17:14:26.502Z,100881.08
2018-07-24T17:16:53.632Z,100881.73
2018-07-24T17:19:20.836Z,100875.69
2018-07-24T17:21:48.006Z,100877.59
2018-07-24T17:24:15.148Z,100879.11
2018-07-24T17:26:42.433Z,100874.23
2018-07-24T17:29:11.573Z,100877.23
2018-07-24T17:31:40.229Z,100876.09
2018-07-24T17:34:07.849Z,100877.19
2018-07-24T17:36:34.997Z,100880.89
2018-07-24T17:39:02.172Z,100889.37
2018-07-24T17:41:29.406Z,100885.47
2018-07-24T17:43:56.549Z,100883.56
2018-07-24T17:46:23.680Z,100886.17
2018-07-24T17:48:50.874Z,100887.55
2018-07-24T17:51:18.001Z,100880.60
2018-07-24T17:53:45.157Z,100890.22
2018-07-24T17:56:12.292Z,100889.50
2018-07-24T17:58:39.383Z,100889.59
2018-07-24T18:01:06.622Z,100896.52
2018-07-24T18:03:33.784Z,100898.36
2018-07-24T18:06:00.920Z,100896.69
2018-07-24T18:08:28.076Z,100906.80
2018-07-24T18:10:55.236Z,100903.87
2018-07-24T18:13:22.355Z,100907.23
2018-07-24T18:15:49.584Z,100911.77
2018-07-24T18:18:16.687Z,100909.51
2018-07-24T18:20:43.806Z,100909.56
2018-07-24T18:23:10.925Z,100918.30
2018-07-24T18:25:38.077Z,100918.30
2018-07-24T18:28:05.183Z,100912.17
2018-07-24T18:30:32.301Z,100912.73
2018-07-24T18:32:59.485Z,100916.17
2018-07-24T18:35:26.605Z,100906.14
2018-07-24T18:37:53.732Z,100906.58
2018-07-24T18:40:21.127Z,100910.81
2018-07-24T18:42:48.259Z,100914.32
2018-07-24T18:45:15.372Z,100914.41
2018-07-24T18:47:42.537Z,100909.32
2018-07-24T18:50:09.637Z,100912.70
2018-07-24T18:52:36.746Z,100918.98
2018-07-24T18:55:03.937Z,100913.01
2018-07-24T18:57:31.093Z,100907.03
2018-07-24T18:59:58.220Z,100919.80
2018-07-24T19:02:25.408Z,100917.48
2018-07-24T19:04:52.521Z,100920.81
2018-07-24T19:07:19.683Z,100916.48
2018-07-24T19:09:46.956Z,100917.36
2018-07-24T19:12:14.097Z,100919.17
2018-07-24T19:14:41.215Z,100926.73
2018-07-24T19:17:08.397Z,100925.73
2018-07-24T19:19:35.585Z,100922.67
2018-07-24T19:22:02.821Z,100917.60
2018-07-24T19:24:29.996Z,100921.86
2018-07-24T19:26:57.114Z,100920.24
2018-07-24T19:29:24.337Z,100920.94
2018-07-24T19:31:51.528Z,100920.30
2018-07-24T19:34:18.655Z,100920.12
2018-07-24T19:36:45.880Z,100922.16
2018-07-24T19:39:13.030Z,100921.98
2018-07-24T19:41:40.276Z,100923.00
2018-07-24T19:44:07.856Z,100923.68
2018-07-24T19:46:34.953Z,100930.48
2018-07-24T19:49:02.112Z,100932.62
2018-07-24T19:51:29.274Z,100925.98
2018-07-24T19:53:56.449Z,100935.84
2018-07-24T19:56:23.611Z,100934.33
2018-07-24T19:58:50.751Z,100930.86
2018-07-24T20:01:17.940Z,100939.70
2018-07-24T20:03:45.137Z,100935.75
2018-07-24T20:06:12.692Z,100934.95
2018-07-24T20:08:39.836Z,100933.16
2018-07-24T20:11:06.965Z,100937.98
2018-07-24T20:13:34.130Z,100937.45
2018-07-24T20:16:01.423Z,100941.06
2018-07-24T20:18:28.525Z,100940.30
2018-07-24T20:20:55.661Z,100940.88
2018-07-24T20:23:23.017Z,100943.90
2018-07-24T20:25:49.987Z,100941.14
2018-07-24T20:28:17.116Z,100943.39
2018-07-24T20:30:44.273Z,100942.25
2018-07-24T20:33:11.408Z,100946.13
2018-07-24T20:35:38.628Z,100949.58
2018-07-24T20:38:05.784Z,100947.13
2018-07-24T20:40:32.979Z,100949.25
2018-07-24T20:43:00.142Z,100950.92
2018-07-24T20:45:27.427Z,100944.89
2018-07-24T20:47:54.568Z,100949.14
2018-07-24T20:50:21.704Z,100947.10
2018-07-24T20:52:48.872Z,100953.52
2018-07-24T20:55:15.992Z,100951.55
2018-07-24T20:57:43.116Z,100954.22
2018-07-24T21:00:10.300Z,100955.86
2018-07-24T21:02:37.448Z,100950.59
2018-07-24T21:05:04.646Z,100953.75
2018-07-24T21:07:31.988Z,100950.21
2018-07-24T21:09:59.125Z,100959.72
2018-07-24T21:12:26.284Z,100953.78
2018-07-24T21:14:53.530Z,100959.94
2018-07-24T21:17:20.648Z,100957.07
2018-07-24T21:19:47.760Z,100957.64
2018-07-24T21:22:15.027Z,100958.83
2018-07-24T21:24:42.137Z,100964.28
2018-07-24T21:27:09.265Z,100963.34
2018-07-24T21:29:36.430Z,100959.14
2018-07-24T21:32:03.612Z,100956.17
2018-07-24T21:34:30.762Z,100968.92
2018-07-24T21:36:57.968Z,100962.03
2018-07-24T21:39:25.087Z,100967.70
2018-07-24T21:41:52.220Z,100970.65
2018-07-24T21:44:19.459Z,100970.39
2018-07-24T21:46:46.609Z,100963.41
2018-07-24T21:49:13.756Z,100968.85
2018-07-24T21:51:41.045Z,100974.59
2018-07-24T21:54:08.173Z,100979.63
2018-07-24T21:56:35.272Z,100974.88
2018-07-24T21:59:02.452Z,100972.77
2018-07-24T22:01:29.600Z,100973.66
2018-07-24T22:03:56.744Z,100972.65
2018-07-24T22:06:24.002Z,100968.08
2018-07-24T22:08:51.245Z,100971.16
2018-07-24T22:11:18.292Z,100971.04
2018-07-24T22:13:45.525Z,100972.68
2018-07-24T22:16:12.682Z,100965.49
2018-07-24T22:18:39.917Z,100972.00
2018-07-24T22:21:07.406Z,100970.94
2018-07-24T22:23:34.587Z,100972.96
2018-07-24T22:26:01.792Z,100977.71
2018-07-24T22:28:28.973Z,100975.64
2018-07-24T22:30:56.085Z,100977.83
2018-07-24T22:33:23.216Z,100975.42
2018-07-24T22:35:50.385Z,100980.56
2018-07-24T22:38:17.498Z,100983.53
2018-07-24T22:40:44.634Z,100982.58
2018-07-24T22:43:11.864Z,100979.21
2018-07-24T22:45:39.003Z,100979.86
2018-07-24T22:48:06.133Z,100980.93
2018-07-24T22:50:33.324Z,100977.95
2018-07-24T22:53:00.436Z,100978.34
2018-07-24T22:55:27.568Z,100985.25
2018-07-24T22:57:54.715Z,100981.92
2018-07-24T23:00:21.885Z,100986.96
2018-07-24T23:02:49.037Z,100985.14
2018-07-24T23:05:16.203Z,100990.11
2018-07-24T23:07:43.357Z,100989.06
2018-07-24T23:10:10.516Z,100986.09
2018-07-24T23:12:37.676Z,100986.73
2018-07-24T23:15:05.445Z,100983.40
2018-07-24T23:17:32.566Z,100984.05
2018-07-24T23:19:59.814Z,100985.07
2018-07-24T23:22:26.940Z,100987.00
2018-07-24T23:24:54.066Z,100985.36
2018-07-24T23:27:21.232Z,100983.24
2018-07-24T23:29:48.343Z,100992.20
2018-07-24T23:32:15.464Z,100990.20
2018-07-24T23:34:42.613Z,100987.23
2018-07-24T23:37:09.749Z,100982.05
2018-07-24T23:39:36.873Z,100982.72
2018-07-24T23:42:04.087Z,100989.95
2018-07-24T23:44:31.229Z,100989.95
2018-07-24T23:46:58.397Z,100982.11
2018-07-24T23:49:25.641Z,100985.34
2018-07-24T23:51:52.784Z,100983.25
2018-07-24T23:54:19.892Z,100985.14
2018-07-24T23:56:47.057Z,100985.61
2018-07-24T23:59:14.178Z,100981.69
